ADDS METAR Data INFO
IDs: Format: Raw Decoded Include TAF

Data at: 1003 UTC 22 May 2018

METAR for:KSPB (Scappoose Ind Airpar, OR, US)
Text:KSPB 220953Z AUTO 33004KT 10SM CLR 13/09 A2993 RMK AO2 SLP136 T01280094
Temperature: 12.8°C ( 55°F)
Dewpoint: 9.4°C ( 49°F) [RH = 80%]
Pressure (altimeter):29.93 inches Hg (1013.6 mb) [Sea level pressure: 1013.6 mb]
Winds:from the NNW (330 degrees) at 5 MPH (4 knots; 2.1 m/s)
Visibility:10 or more sm (16+ km)
Ceiling:at least 12,000 feet AGL
Clouds:sky clear below 12,000 feet AGL
QC Flag:automated observation with no human augmentation